Time;durP1;ratioP1;P1;durP2;ratioP2;P2;SDS_P1;SDS_P2;PMS_P1;PMS_P2;Temp;Humidity;BMP_temperature;BMP_pressure;BME280_temperature;BME280_humidity;BME280_pressure;Samples;Min_cycle;Max_cycle;Signal;HPM_P1;HPM_P2
2024/01/20 00:00:48;;;;;;;32.73;17.33;;;;;;;;;;5093711;28;20421;-35
2024/01/20 00:03:13;;;;;;;35.55;17.00;;;;;;;;;;5093709;28;20262;-35
2024/01/20 00:05:38;;;;;;;32.27;17.17;;;;;;;;;;5093478;28;20368;-36
2024/01/20 00:08:03;;;;;;;37.22;16.73;;;;;;;;;;5093602;28;20262;-34
2024/01/20 00:10:28;;;;;;;31.67;16.50;;;;;;;;;;5093635;28;20016;-35
2024/01/20 00:12:54;;;;;;;31.63;16.77;;;;;;;;;;5093488;28;20042;-36
2024/01/20 00:15:19;;;;;;;34.10;16.77;;;;;;;;;;5093819;28;20044;-36
2024/01/20 00:17:44;;;;;;;31.85;16.42;;;;;;;;;;5093514;28;20115;-35
2024/01/20 00:20:09;;;;;;;31.67;16.30;;;;;;;;;;5075378;28;20016;-36
2024/01/20 00:22:35;;;;;;;33.28;16.92;;;;;;;;;;5093520;28;20042;-36
2024/01/20 00:25:02;;;;;;;30.50;16.38;;;;;;;;;;5093707;28;20508;-36
2024/01/20 00:27:27;;;;;;;31.90;16.40;;;;;;;;;;5093681;28;20023;-36
2024/01/20 00:29:52;;;;;;;37.30;16.90;;;;;;;;;;5093698;28;20020;-36
2024/01/20 00:32:18;;;;;;;34.50;16.67;;;;;;;;;;5093339;28;20027;-36
2024/01/20 00:34:43;;;;;;;33.00;16.77;;;;;;;;;;5093359;28;20023;-36
2024/01/20 00:37:08;;;;;;;32.78;16.00;;;;;;;;;;5093584;28;20352;-35
2024/01/20 00:39:33;;;;;;;32.10;16.53;;;;;;;;;;5093194;28;20308;-35
2024/01/20 00:41:58;;;;;;;34.93;17.13;;;;;;;;;;5093124;28;20327;-35
2024/01/20 00:44:23;;;;;;;34.30;17.50;;;;;;;;;;5093208;28;20246;-36
2024/01/20 00:46:49;;;;;;;38.63;17.38;;;;;;;;;;5093740;28;20016;-35
2024/01/20 00:49:14;;;;;;;32.15;16.52;;;;;;;;;;5093183;28;20452;-36
2024/01/20 00:51:39;;;;;;;31.48;16.02;;;;;;;;;;5093702;28;20103;-36
2024/01/20 00:54:04;;;;;;;33.90;16.77;;;;;;;;;;5093352;28;20030;-36
2024/01/20 00:56:29;;;;;;;39.33;17.08;;;;;;;;;;5093193;28;20042;-35
2024/01/20 00:58:54;;;;;;;35.70;16.35;;;;;;;;;;5093665;28;20024;-35
2024/01/20 01:01:20;;;;;;;34.25;16.15;;;;;;;;;;5078583;28;20024;-35
2024/01/20 01:03:45;;;;;;;36.25;16.73;;;;;;;;;;5097142;28;20352;-35
2024/01/20 01:06:10;;;;;;;35.25;15.82;;;;;;;;;;5096834;28;20044;-35
2024/01/20 01:08:36;;;;;;;38.13;16.15;;;;;;;;;;5097174;28;20012;-35
2024/01/20 01:11:01;;;;;;;31.97;15.00;;;;;;;;;;5097316;28;20026;-34
2024/01/20 01:13:26;;;;;;;34.63;16.17;;;;;;;;;;5096668;28;20655;-34
2024/01/20 01:15:51;;;;;;;36.85;15.45;;;;;;;;;;5097057;28;20417;-35
2024/01/20 01:18:16;;;;;;;37.88;15.82;;;;;;;;;;5096707;28;20035;-35
2024/01/20 01:20:42;;;;;;;38.88;15.93;;;;;;;;;;5097452;28;20335;-35
2024/01/20 01:23:07;;;;;;;32.45;15.88;;;;;;;;;;5096682;28;20020;-35
2024/01/20 01:25:32;;;;;;;36.00;15.93;;;;;;;;;;5096517;28;20018;-34
2024/01/20 01:27:57;;;;;;;35.20;15.80;;;;;;;;;;5097104;28;20247;-35
2024/01/20 01:30:22;;;;;;;34.30;15.55;;;;;;;;;;5096501;28;20282;-35
2024/01/20 01:32:47;;;;;;;37.63;16.43;;;;;;;;;;5096803;28;20098;-35
2024/01/20 01:35:13;;;;;;;38.63;16.53;;;;;;;;;;5096628;28;20258;-35
2024/01/20 01:37:38;;;;;;;41.75;16.63;;;;;;;;;;5096299;28;20887;-35
2024/01/20 01:40:03;;;;;;;38.15;15.50;;;;;;;;;;5096569;28;20023;-36
2024/01/20 01:42:28;;;;;;;42.97;16.58;;;;;;;;;;5096729;28;20024;-36
2024/01/20 01:44:54;;;;;;;38.47;15.87;;;;;;;;;;5096507;28;20016;-35
2024/01/20 01:47:19;;;;;;;33.42;15.98;;;;;;;;;;5096458;28;20255;-36
2024/01/20 01:49:45;;;;;;;36.10;15.65;;;;;;;;;;5096084;28;20020;-35
2024/01/20 01:52:11;;;;;;;35.65;14.60;;;;;;;;;;5096319;28;20044;-35
2024/01/20 01:54:36;;;;;;;30.98;13.15;;;;;;;;;;5096275;28;20016;-36
2024/01/20 01:57:03;;;;;;;32.92;15.57;;;;;;;;;;5095986;28;20021;-34
2024/01/20 01:59:29;;;;;;;37.50;15.70;;;;;;;;;;5096193;28;20130;-36
2024/01/20 02:01:54;;;;;;;35.50;15.63;;;;;;;;;;5095789;28;20012;-34
2024/01/20 02:04:19;;;;;;;34.88;15.43;;;;;;;;;;5095782;28;20012;-36
2024/01/20 02:06:44;;;;;;;34.58;15.07;;;;;;;;;;5095690;28;20484;-35
2024/01/20 02:09:10;;;;;;;42.28;16.90;;;;;;;;;;5096215;28;20027;-36
2024/01/20 02:11:35;;;;;;;31.70;15.13;;;;;;;;;;5094802;28;20371;-36
2024/01/20 02:14:00;;;;;;;41.35;15.05;;;;;;;;;;5095622;28;20027;-36
2024/01/20 02:16:25;;;;;;;32.80;15.13;;;;;;;;;;5095578;28;20012;-35
2024/01/20 02:18:51;;;;;;;40.78;16.20;;;;;;;;;;5096088;28;20032;-35
2024/01/20 02:21:16;;;;;;;41.70;16.40;;;;;;;;;;5095447;28;20419;-35
2024/01/20 02:23:42;;;;;;;42.60;16.43;;;;;;;;;;5095977;28;20099;-36
2024/01/20 02:26:08;;;;;;;44.90;16.63;;;;;;;;;;5095440;28;20278;-36
2024/01/20 02:28:33;;;;;;;38.88;16.48;;;;;;;;;;5095339;28;20024;-36
2024/01/20 02:30:58;;;;;;;38.05;15.52;;;;;;;;;;5095357;28;20020;-35
2024/01/20 02:33:23;;;;;;;40.13;17.42;;;;;;;;;;5095578;28;20463;-36
2024/01/20 02:35:49;;;;;;;38.85;16.58;;;;;;;;;;5095130;28;20012;-36
2024/01/20 02:38:14;;;;;;;42.88;16.45;;;;;;;;;;5095446;28;20012;-36
2024/01/20 02:40:39;;;;;;;41.95;16.13;;;;;;;;;;5095542;28;20016;-36
2024/01/20 02:43:04;;;;;;;41.05;17.08;;;;;;;;;;5095038;28;20035;-36
2024/01/20 02:45:29;;;;;;;42.70;17.13;;;;;;;;;;5095622;28;20101;-36
2024/01/20 02:47:55;;;;;;;40.15;16.77;;;;;;;;;;5094901;28;20258;-36
2024/01/20 02:50:20;;;;;;;46.28;18.58;;;;;;;;;;5095266;28;20016;-36
2024/01/20 02:52:45;;;;;;;40.85;17.15;;;;;;;;;;5095717;28;20024;-36
2024/01/20 02:55:11;;;;;;;44.25;17.38;;;;;;;;;;5095430;28;20056;-36
2024/01/20 02:57:36;;;;;;;41.28;16.42;;;;;;;;;;5095352;28;20364;-35
2024/01/20 03:00:01;;;;;;;44.10;16.17;;;;;;;;;;5094740;28;20464;-36
2024/01/20 03:02:26;;;;;;;42.75;17.40;;;;;;;;;;5094604;28;20107;-36
2024/01/20 03:04:51;;;;;;;43.00;16.60;;;;;;;;;;5094773;28;20043;-36
2024/01/20 03:07:17;;;;;;;40.83;16.42;;;;;;;;;;5094601;28;20360;-36
2024/01/20 03:09:43;;;;;;;41.90;16.70;;;;;;;;;;5094871;28;20473;-36
2024/01/20 03:12:08;;;;;;;41.75;16.52;;;;;;;;;;5094471;28;20016;-36
2024/01/20 03:14:33;;;;;;;41.95;16.58;;;;;;;;;;5094495;28;20081;-36
2024/01/20 03:16:59;;;;;;;48.22;17.90;;;;;;;;;;5076385;28;20486;-36
2024/01/20 03:19:24;;;;;;;38.57;15.90;;;;;;;;;;5094985;28;20073;-36
2024/01/20 03:21:49;;;;;;;43.08;16.85;;;;;;;;;;5094598;28;20735;-36
2024/01/20 03:24:17;;;;;;;43.65;16.88;;;;;;;;;;5094588;28;20012;-36
2024/01/20 03:26:44;;;;;;;42.10;17.15;;;;;;;;;;5094302;28;20016;-36
2024/01/20 03:29:09;;;;;;;44.85;16.52;;;;;;;;;;5094504;28;20459;-36
2024/01/20 03:31:34;;;;;;;43.20;16.83;;;;;;;;;;5094782;28;20028;-36
2024/01/20 03:34:00;;;;;;;40.28;16.55;;;;;;;;;;5094231;28;20048;-37
2024/01/20 03:36:25;;;;;;;47.47;17.63;;;;;;;;;;5094396;28;20020;-36
2024/01/20 03:38:50;;;;;;;43.40;16.95;;;;;;;;;;5094042;28;20414;-36
2024/01/20 03:41:15;;;;;;;35.92;14.60;;;;;;;;;;5094220;28;20050;-36
2024/01/20 03:43:41;;;;;;;42.80;15.63;;;;;;;;;;5094267;28;20020;-36
2024/01/20 03:46:06;;;;;;;43.25;16.83;;;;;;;;;;5093846;28;20470;-36
2024/01/20 03:48:32;;;;;;;44.03;16.20;;;;;;;;;;5094468;28;20020;-36
2024/01/20 03:50:57;;;;;;;40.15;16.83;;;;;;;;;;5094162;28;20031;-36
2024/01/20 03:53:22;;;;;;;34.13;15.40;;;;;;;;;;5093804;28;20016;-36
2024/01/20 03:55:47;;;;;;;44.30;16.17;;;;;;;;;;5094046;28;20016;-36
2024/01/20 03:58:12;;;;;;;41.92;15.63;;;;;;;;;;5075649;28;20442;-36
2024/01/20 04:00:38;;;;;;;39.17;15.23;;;;;;;;;;5093979;28;20019;-36
2024/01/20 04:03:03;;;;;;;40.38;15.25;;;;;;;;;;5094165;28;20082;-36
2024/01/20 04:05:28;;;;;;;37.97;15.77;;;;;;;;;;5093817;28;20016;-35
2024/01/20 04:07:53;;;;;;;42.03;15.17;;;;;;;;;;5093644;28;20020;-36
2024/01/20 04:10:20;;;;;;;43.40;16.42;;;;;;;;;;5093485;28;20366;-36
2024/01/20 04:12:45;;;;;;;42.72;15.88;;;;;;;;;;5093591;28;20055;-34
2024/01/20 04:15:10;;;;;;;34.35;15.13;;;;;;;;;;5093693;28;20374;-36
2024/01/20 04:17:35;;;;;;;40.22;15.50;;;;;;;;;;5093445;28;20027;-36
2024/01/20 04:20:01;;;;;;;39.33;16.15;;;;;;;;;;5093721;28;20032;-36
2024/01/20 04:22:26;;;;;;;41.25;15.35;;;;;;;;;;5093605;28;20016;-36
2024/01/20 04:24:51;;;;;;;41.88;15.68;;;;;;;;;;5093898;28;20099;-36
2024/01/20 04:27:16;;;;;;;41.40;16.02;;;;;;;;;;5093397;28;20422;-36
2024/01/20 04:29:41;;;;;;;41.45;15.63;;;;;;;;;;5093368;28;20038;-36
2024/01/20 04:32:06;;;;;;;40.90;15.50;;;;;;;;;;5093674;28;20047;-36
2024/01/20 04:34:32;;;;;;;37.35;14.60;;;;;;;;;;5094201;28;20258;-36
2024/01/20 04:36:57;;;;;;;38.55;14.30;;;;;;;;;;5097814;28;20024;-36
2024/01/20 04:39:22;;;;;;;33.83;14.60;;;;;;;;;;5097501;28;20158;-36
2024/01/20 04:41:47;;;;;;;38.08;14.55;;;;;;;;;;5097291;28;20020;-36
2024/01/20 04:44:15;;;;;;;41.95;14.75;;;;;;;;;;5097439;28;20046;-35
2024/01/20 04:46:40;;;;;;;35.65;14.80;;;;;;;;;;5097339;28;20016;-36
2024/01/20 04:49:05;;;;;;;45.50;15.15;;;;;;;;;;5097853;28;20013;-37
2024/01/20 04:51:30;;;;;;;43.58;15.02;;;;;;;;;;5097563;28;20020;-36
2024/01/20 04:53:55;;;;;;;36.38;14.48;;;;;;;;;;5097766;28;20027;-36
2024/01/20 04:56:22;;;;;;;36.05;14.23;;;;;;;;;;5097446;28;20426;-35
2024/01/20 04:58:47;;;;;;;36.60;14.02;;;;;;;;;;5097412;28;20377;-36
2024/01/20 05:01:13;;;;;;;36.97;13.98;;;;;;;;;;5096956;28;20016;-36
2024/01/20 05:03:38;;;;;;;34.58;13.40;;;;;;;;;;5097626;28;20063;-37
2024/01/20 05:06:05;;;;;;;39.63;14.63;;;;;;;;;;5096723;28;20043;-37
2024/01/20 05:08:30;;;;;;;39.22;14.50;;;;;;;;;;5096983;28;20026;-37
2024/01/20 05:10:55;;;;;;;39.60;14.55;;;;;;;;;;5096877;28;20424;-37
2024/01/20 05:13:20;;;;;;;34.22;13.80;;;;;;;;;;5096880;28;20073;-37
2024/01/20 05:15:46;;;;;;;38.85;14.13;;;;;;;;;;5097135;28;20016;-37
2024/01/20 05:18:11;;;;;;;31.58;13.55;;;;;;;;;;5097019;28;20047;-37
2024/01/20 05:20:36;;;;;;;36.47;14.25;;;;;;;;;;5096907;28;20475;-36
2024/01/20 05:23:01;;;;;;;35.28;13.85;;;;;;;;;;5096675;28;20356;-37
2024/01/20 05:25:26;;;;;;;39.10;13.00;;;;;;;;;;5097209;28;20024;-38
2024/01/20 05:27:53;;;;;;;34.55;14.23;;;;;;;;;;5096573;28;20027;-37
2024/01/20 05:30:18;;;;;;;42.60;15.02;;;;;;;;;;5096278;28;20035;-37
2024/01/20 05:32:43;;;;;;;30.65;12.52;;;;;;;;;;5096752;28;20020;-37
2024/01/20 05:35:09;;;;;;;39.53;14.60;;;;;;;;;;5096373;28;20016;-37
2024/01/20 05:37:34;;;;;;;39.53;15.05;;;;;;;;;;5096701;28;20020;-37
2024/01/20 05:39:59;;;;;;;34.78;14.25;;;;;;;;;;5096367;28;20027;-37
2024/01/20 05:42:24;;;;;;;38.53;13.68;;;;;;;;;;5096265;28;20123;-37
2024/01/20 05:44:49;;;;;;;34.30;13.13;;;;;;;;;;5096398;28;20035;-36
2024/01/20 05:47:14;;;;;;;37.78;13.82;;;;;;;;;;5095453;28;20016;-37
2024/01/20 05:49:40;;;;;;;40.83;14.13;;;;;;;;;;5096495;28;20020;-37
2024/01/20 05:52:05;;;;;;;34.72;14.23;;;;;;;;;;5096417;28;20066;-36
2024/01/20 05:54:30;;;;;;;35.28;13.63;;;;;;;;;;5096093;28;20026;-39
2024/01/20 05:56:55;;;;;;;33.88;13.85;;;;;;;;;;5096542;28;20077;-36
2024/01/20 05:59:20;;;;;;;36.53;13.40;;;;;;;;;;5095880;28;20028;-37
2024/01/20 06:01:50;;;;;;;30.73;10.68;;;;;;;;;;5095794;28;20020;-38
2024/01/20 06:04:16;;;;;;;39.65;14.27;;;;;;;;;;5096413;28;20016;-36
2024/01/20 06:06:41;;;;;;;32.47;13.05;;;;;;;;;;5095681;28;20532;-36
2024/01/20 06:09:06;;;;;;;37.00;13.25;;;;;;;;;;5095810;28;20444;-37
2024/01/20 06:11:32;;;;;;;33.78;12.55;;;;;;;;;;5095990;28;20070;-37
2024/01/20 06:13:57;;;;;;;34.80;13.43;;;;;;;;;;5095751;28;20016;-37
2024/01/20 06:16:23;;;;;;;33.42;14.07;;;;;;;;;;5095616;28;20073;-37
2024/01/20 06:18:48;;;;;;;34.45;13.07;;;;;;;;;;5096163;28;20028;-37
2024/01/20 06:21:19;;;;;;;28.30;12.93;;;;;;;;;;5095445;28;20020;-36
2024/01/20 06:23:44;;;;;;;40.53;13.88;;;;;;;;;;5095718;28;20012;-37
2024/01/20 06:26:10;;;;;;;32.42;11.95;;;;;;;;;;5095724;28;20466;-37
2024/01/20 06:28:35;;;;;;;31.67;13.35;;;;;;;;;;5095370;28;20012;-36
2024/01/20 06:31:01;;;;;;;34.45;12.57;;;;;;;;;;5095874;28;20093;-36
2024/01/20 06:33:26;;;;;;;35.10;12.88;;;;;;;;;;5095342;28;20042;-37
2024/01/20 06:35:52;;;;;;;34.95;13.02;;;;;;;;;;5095740;28;20039;-37
2024/01/20 06:38:17;;;;;;;29.67;11.77;;;;;;;;;;5095128;28;20027;-37
2024/01/20 06:40:42;;;;;;;29.83;12.85;;;;;;;;;;5095749;28;20027;-37
2024/01/20 06:43:09;;;;;;;32.58;13.18;;;;;;;;;;5095059;28;20418;-37
2024/01/20 06:45:34;;;;;;;32.30;13.70;;;;;;;;;;5095051;28;20031;-38
2024/01/20 06:48:01;;;;;;;34.67;12.90;;;;;;;;;;5095353;28;20008;-38
2024/01/20 06:50:26;;;;;;;32.25;12.65;;;;;;;;;;5094953;28;20020;-37
2024/01/20 06:52:51;;;;;;;37.75;14.05;;;;;;;;;;5094881;28;20023;-38
2024/01/20 06:55:16;;;;;;;32.38;13.40;;;;;;;;;;5095407;28;20020;-37
2024/01/20 06:57:42;;;;;;;30.60;12.93;;;;;;;;;;5094554;28;20059;-37
2024/01/20 07:00:08;;;;;;;28.92;11.70;;;;;;;;;;5095348;28;20250;-37
2024/01/20 07:02:33;;;;;;;30.35;12.07;;;;;;;;;;5094924;28;20103;-38
2024/01/20 07:04:58;;;;;;;29.38;12.32;;;;;;;;;;5094972;28;20407;-37
2024/01/20 07:07:24;;;;;;;28.52;12.60;;;;;;;;;;5094623;28;20083;-38
2024/01/20 07:09:49;;;;;;;30.20;11.85;;;;;;;;;;5094572;28;20458;-38
2024/01/20 07:12:14;;;;;;;32.92;11.82;;;;;;;;;;5094698;28;20055;-37
2024/01/20 07:14:42;;;;;;;31.67;11.82;;;;;;;;;;5095101;28;20355;-37
2024/01/20 07:17:07;;;;;;;36.78;13.18;;;;;;;;;;5094705;28;20387;-38
2024/01/20 07:19:33;;;;;;;34.78;12.32;;;;;;;;;;5094219;28;20020;-37
2024/01/20 07:21:58;;;;;;;27.42;11.68;;;;;;;;;;5094282;28;20020;-38
2024/01/20 07:24:23;;;;;;;32.75;12.82;;;;;;;;;;5094880;28;20023;-37
2024/01/20 07:26:48;;;;;;;37.80;13.30;;;;;;;;;;5094454;28;20070;-37
2024/01/20 07:29:14;;;;;;;30.75;12.30;;;;;;;;;;5094533;28;20091;-38
2024/01/20 07:31:39;;;;;;;31.15;12.35;;;;;;;;;;5094482;28;20017;-38
2024/01/20 07:34:04;;;;;;;34.33;12.67;;;;;;;;;;5094220;28;20516;-38
2024/01/20 07:36:29;;;;;;;32.38;12.57;;;;;;;;;;5094423;28;20262;-41
2024/01/20 07:38:54;;;;;;;30.75;12.60;;;;;;;;;;5094095;28;20095;-37
2024/01/20 07:41:20;;;;;;;30.05;11.98;;;;;;;;;;5094524;28;20028;-38
2024/01/20 07:43:45;;;;;;;35.47;12.60;;;;;;;;;;5094539;28;20474;-37
2024/01/20 07:46:11;;;;;;;30.80;11.90;;;;;;;;;;5093876;28;20016;-38
2024/01/20 07:48:36;;;;;;;27.65;11.60;;;;;;;;;;5093944;28;20012;-37
2024/01/20 07:51:01;;;;;;;28.88;11.18;;;;;;;;;;5076047;28;20020;-38
2024/01/20 07:53:28;;;;;;;35.35;13.48;;;;;;;;;;5094092;28;20421;-36
2024/01/20 07:55:53;;;;;;;24.10;10.88;;;;;;;;;;5094021;28;20024;-37
2024/01/20 07:58:18;;;;;;;31.05;13.35;;;;;;;;;;5093953;28;20031;-37
2024/01/20 08:00:43;;;;;;;28.95;12.38;;;;;;;;;;5093755;28;20020;-39
2024/01/20 08:03:09;;;;;;;31.27;12.83;;;;;;;;;;5093697;28;20367;-38
2024/01/20 08:05:34;;;;;;;35.13;13.32;;;;;;;;;;5093471;28;20277;-38
2024/01/20 08:07:59;;;;;;;38.47;13.68;;;;;;;;;;5094118;28;20016;-38
2024/01/20 08:10:24;;;;;;;33.15;12.73;;;;;;;;;;5093521;28;20019;-38
2024/01/20 08:12:51;;;;;;;32.58;11.45;;;;;;;;;;5093752;28;20091;-38
2024/01/20 08:15:16;;;;;;;31.77;12.05;;;;;;;;;;5093446;28;20020;-38
2024/01/20 08:17:41;;;;;;;33.03;13.35;;;;;;;;;;5075471;28;20023;-38
2024/01/20 08:20:07;;;;;;;30.05;12.52;;;;;;;;;;5093801;28;20016;-38
2024/01/20 08:22:32;;;;;;;33.72;13.25;;;;;;;;;;5093698;28;20043;-38
2024/01/20 08:24:59;;;;;;;31.48;13.07;;;;;;;;;;5093419;28;20019;-38
2024/01/20 08:27:24;;;;;;;38.42;13.25;;;;;;;;;;5093700;28;20021;-38
2024/01/20 08:29:49;;;;;;;33.03;12.60;;;;;;;;;;5093520;28;20344;-38
2024/01/20 08:32:15;;;;;;;33.08;12.45;;;;;;;;;;5093410;28;20027;-38
2024/01/20 08:34:40;;;;;;;27.27;11.43;;;;;;;;;;5093243;28;20102;-38
2024/01/20 08:37:05;;;;;;;33.30;13.63;;;;;;;;;;5093393;28;20801;-38
2024/01/20 08:39:30;;;;;;;32.53;13.20;;;;;;;;;;5093659;28;20258;-37
2024/01/20 08:41:55;;;;;;;36.50;13.60;;;;;;;;;;5093103;28;20309;-38
2024/01/20 08:44:20;;;;;;;39.20;13.77;;;;;;;;;;5093742;28;20024;-38
2024/01/20 08:46:47;;;;;;;36.58;13.52;;;;;;;;;;5093352;28;20250;-37
2024/01/20 08:49:13;;;;;;;36.65;14.00;;;;;;;;;;5093515;28;20107;-37
2024/01/20 08:51:38;;;;;;;33.45;14.10;;;;;;;;;;5093274;28;20516;-37
2024/01/20 08:54:03;;;;;;;36.67;14.60;;;;;;;;;;5093469;28;20019;-38
2024/01/20 08:56:28;;;;;;;37.75;14.43;;;;;;;;;;5093010;28;20027;-38
2024/01/20 08:58:54;;;;;;;40.10;14.00;;;;;;;;;;5093590;28;20069;-37
2024/01/20 09:01:19;;;;;;;35.05;13.85;;;;;;;;;;5093048;28;20306;-38
2024/01/20 09:03:44;;;;;;;33.85;13.80;;;;;;;;;;5092899;28;20020;-37
2024/01/20 09:06:13;;;;;;;33.70;14.07;;;;;;;;;;5092849;28;20127;-37
2024/01/20 09:08:42;;;;;;;39.15;14.63;;;;;;;;;;5074732;28;20262;-37
2024/01/20 09:11:07;;;;;;;34.83;13.98;;;;;;;;;;5092658;28;20024;-37
2024/01/20 09:13:33;;;;;;;38.92;14.05;;;;;;;;;;5093062;28;20409;-45
2024/01/20 09:15:58;;;;;;;44.10;15.18;;;;;;;;;;5093360;28;20051;-38
2024/01/20 09:18:23;;;;;;;36.15;13.85;;;;;;;;;;5093379;28;20013;-38
2024/01/20 09:20:48;;;;;;;36.85;14.65;;;;;;;;;;5094830;28;20012;-37
2024/01/20 09:23:14;;;;;;;32.40;13.73;;;;;;;;;;5096662;28;20497;-37
2024/01/20 09:25:39;;;;;;;33.78;13.35;;;;;;;;;;5097231;28;20019;-38
2024/01/20 09:28:05;;;;;;;39.20;15.20;;;;;;;;;;5097042;28;20087;-37
2024/01/20 09:30:30;;;;;;;35.35;14.13;;;;;;;;;;5096691;28;20043;-38
2024/01/20 09:32:56;;;;;;;36.78;14.13;;;;;;;;;;5078371;28;20028;-37
2024/01/20 09:35:21;;;;;;;33.85;14.10;;;;;;;;;;5096541;28;20115;-40
2024/01/20 09:37:46;;;;;;;34.25;14.75;;;;;;;;;;5096325;28;20513;-38
2024/01/20 09:40:12;;;;;;;33.90;14.23;;;;;;;;;;5096448;28;20438;-38
2024/01/20 09:42:37;;;;;;;38.88;14.80;;;;;;;;;;5096154;28;20024;-37
2024/01/20 09:45:02;;;;;;;32.35;14.63;;;;;;;;;;5096318;28;20402;-38
2024/01/20 09:47:27;;;;;;;33.78;13.95;;;;;;;;;;5096152;28;20016;-38
2024/01/20 09:49:53;;;;;;;27.52;13.30;;;;;;;;;;5096212;28;20016;-38
2024/01/20 09:52:25;;;;;;;32.42;13.52;;;;;;;;;;5096178;28;20432;-38
2024/01/20 09:54:53;;;;;;;30.20;13.10;;;;;;;;;;5096144;28;20047;-38
2024/01/20 09:57:19;;;;;;;31.02;13.32;;;;;;;;;;5096071;28;20024;-38
2024/01/20 09:59:45;;;;;;;32.08;13.50;;;;;;;;;;5095895;28;20023;-37
2024/01/20 10:02:10;;;;;;;29.58;13.80;;;;;;;;;;5096445;28;20020;-37
2024/01/20 10:04:39;;;;;;;33.20;13.38;;;;;;;;;;5095739;28;20019;-38
2024/01/20 10:07:04;;;;;;;31.67;14.00;;;;;;;;;;5095642;28;20036;-38
2024/01/20 10:09:30;;;;;;;30.02;13.15;;;;;;;;;;5095854;28;20498;-37
2024/01/20 10:11:56;;;;;;;29.30;13.40;;;;;;;;;;5096038;28;20024;-37
2024/01/20 10:14:21;;;;;;;29.73;12.63;;;;;;;;;;5096037;28;20035;-38
2024/01/20 10:16:46;;;;;;;25.88;12.68;;;;;;;;;;5095709;28;20032;-37
2024/01/20 10:19:11;;;;;;;32.33;13.63;;;;;;;;;;5077581;28;20020;-37
2024/01/20 10:21:40;;;;;;;29.88;13.52;;;;;;;;;;5077916;28;20351;-37
2024/01/20 10:24:06;;;;;;;31.95;13.68;;;;;;;;;;5096031;28;20039;-37
2024/01/20 10:26:39;;;;;;;27.90;13.30;;;;;;;;;;5095497;28;20415;-38
2024/01/20 10:29:04;;;;;;;;;;;;;;;;;;5095898;28;20073;-38
2024/01/20 10:31:31;;;;;;;30.85;13.15;;;;;;;;;;5095444;28;19965;-38
2024/01/20 10:33:57;;;;;;;24.77;11.30;;;;;;;;;;5094831;28;20463;-38
2024/01/20 10:36:24;;;;;;;25.58;12.20;;;;;;;;;;5077116;28;20086;-37
2024/01/20 10:38:52;;;;;;;26.65;12.70;;;;;;;;;;5077322;28;20032;-37
2024/01/20 10:41:19;;;;;;;23.35;12.10;;;;;;;;;;5095177;28;20016;-38
2024/01/20 10:43:48;;;;;;;21.33;12.10;;;;;;;;;;5095723;28;20008;-38
2024/01/20 10:46:35;;;;;;;23.27;12.60;;;;;;;;;;5095101;28;20063;-38
2024/01/20 10:49:04;;;;;;;22.35;12.32;;;;;;;;;;5095278;28;20016;-38
2024/01/20 10:51:30;;;;;;;23.63;14.00;;;;;;;;;;5094940;28;20024;-38
2024/01/20 10:53:56;;;;;;;23.25;14.18;;;;;;;;;;5094672;28;20039;-37
2024/01/20 10:56:21;;;;;;;21.67;13.32;;;;;;;;;;5094837;28;20054;-37
2024/01/20 10:58:50;;;;;;;21.33;13.20;;;;;;;;;;5094541;28;20024;-38
2024/01/20 11:01:16;;;;;;;25.48;14.20;;;;;;;;;;5094361;28;20027;-38
2024/01/20 11:03:41;;;;;;;26.30;13.70;;;;;;;;;;5095001;28;20016;-38
2024/01/20 11:06:17;;;;;;;28.20;13.63;;;;;;;;;;5094300;28;20119;-38
2024/01/20 11:08:47;;;;;;;33.13;13.70;;;;;;;;;;5094435;28;20071;-38
2024/01/20 11:11:12;;;;;;;26.02;12.95;;;;;;;;;;5094318;28;20012;-37
2024/01/20 11:13:37;;;;;;;28.10;12.80;;;;;;;;;;5094330;28;20013;-36
2024/01/20 11:16:03;;;;;;;29.33;13.57;;;;;;;;;;5094526;28;20269;-37
2024/01/20 11:18:28;;;;;;;29.52;13.90;;;;;;;;;;5094793;28;20020;-38
2024/01/20 11:20:57;;;;;;;27.17;13.38;;;;;;;;;;5095007;28;20012;-38
2024/01/20 11:23:22;;;;;;;27.17;12.82;;;;;;;;;;5076198;28;20028;-38
2024/01/20 11:25:47;;;;;;;25.10;12.95;;;;;;;;;;5094270;28;20379;-39
2024/01/20 11:28:22;;;;;;;25.70;12.53;;;;;;;;;;5094310;28;20016;-39
2024/01/20 11:30:47;;;;;;;25.67;12.52;;;;;;;;;;5094201;28;20555;-37
2024/01/20 11:33:13;;;;;;;25.33;12.87;;;;;;;;;;5094487;28;20023;-37
2024/01/20 11:35:38;;;;;;;27.95;13.70;;;;;;;;;;5094618;28;20246;-37
2024/01/20 11:38:04;;;;;;;25.73;13.17;;;;;;;;;;5094089;28;20073;-37
2024/01/20 11:40:29;;;;;;;29.55;13.60;;;;;;;;;;5094066;28;20247;-37
2024/01/20 11:43:03;;;;;;;28.30;13.00;;;;;;;;;;5094387;28;20020;-37
2024/01/20 11:45:28;;;;;;;25.00;12.20;;;;;;;;;;5093376;28;20018;-37
2024/01/20 11:47:53;;;;;;;26.03;12.63;;;;;;;;;;5093919;28;20028;-37
2024/01/20 11:50:19;;;;;;;25.45;13.45;;;;;;;;;;5093667;28;20258;-37
2024/01/20 11:52:44;;;;;;;26.90;13.30;;;;;;;;;;5093544;28;20016;-37
2024/01/20 11:55:09;;;;;;;24.23;12.90;;;;;;;;;;5093790;28;20146;-37
2024/01/20 11:57:35;;;;;;;23.40;12.57;;;;;;;;;;5094270;28;20261;-37
2024/01/20 12:00:00;;;;;;;26.75;12.80;;;;;;;;;;5094287;28;20289;-38
2024/01/20 12:02:25;;;;;;;26.70;13.88;;;;;;;;;;5093767;28;20023;-37
2024/01/20 12:04:51;;;;;;;25.13;12.57;;;;;;;;;;5093904;28;20362;-38
2024/01/20 12:07:19;;;;;;;23.73;13.15;;;;;;;;;;5093585;28;20594;-38
2024/01/20 12:09:50;;;;;;;25.88;12.95;;;;;;;;;;5093864;28;20024;-38
2024/01/20 12:12:16;;;;;;;27.27;13.93;;;;;;;;;;5075333;28;20040;-38
2024/01/20 12:14:44;;;;;;;24.40;13.35;;;;;;;;;;5093813;28;20382;-37
2024/01/20 12:17:10;;;;;;;24.92;13.35;;;;;;;;;;5093474;28;20027;-37
2024/01/20 12:19:38;;;;;;;25.88;13.88;;;;;;;;;;5093425;28;20016;-39
2024/01/20 12:22:04;;;;;;;23.63;13.27;;;;;;;;;;5093369;28;20024;-38
2024/01/20 12:24:31;;;;;;;26.10;14.02;;;;;;;;;;5093657;28;20020;-38
2024/01/20 12:26:56;;;;;;;24.92;14.05;;;;;;;;;;5093753;28;20042;-37
2024/01/20 12:29:21;;;;;;;26.90;14.07;;;;;;;;;;5093589;28;20069;-37
2024/01/20 12:31:46;;;;;;;24.03;13.50;;;;;;;;;;5093697;28;20258;-37
2024/01/20 12:34:12;;;;;;;24.92;13.35;;;;;;;;;;5093380;28;20254;-38
2024/01/20 12:36:37;;;;;;;21.98;13.35;;;;;;;;;;5093502;28;20047;-39
2024/01/20 12:39:02;;;;;;;22.60;13.85;;;;;;;;;;5075372;28;20028;-39
2024/01/20 12:41:27;;;;;;;21.40;13.40;;;;;;;;;;5093610;28;20101;-38
2024/01/20 12:43:53;;;;;;;20.83;14.00;;;;;;;;;;5093919;28;20039;-38
2024/01/20 12:46:19;;;;;;;21.40;13.60;;;;;;;;;;5093415;28;20498;-39
2024/01/20 12:48:44;;;;;;;20.70;13.80;;;;;;;;;;5093386;28;20286;-39
2024/01/20 12:51:10;;;;;;;21.33;13.82;;;;;;;;;;5093380;28;20463;-39
2024/01/20 12:53:35;;;;;;;21.65;13.68;;;;;;;;;;5093330;28;20016;-39
2024/01/20 12:56:00;;;;;;;22.17;13.88;;;;;;;;;;5095983;28;20026;-39
2024/01/20 12:58:29;;;;;;;24.25;14.05;;;;;;;;;;5097299;28;20463;-39
2024/01/20 13:00:55;;;;;;;23.52;14.02;;;;;;;;;;5097848;28;20024;-38
2024/01/20 13:03:20;;;;;;;22.25;12.35;;;;;;;;;;5078867;28;20024;-38
2024/01/20 13:05:45;;;;;;;20.73;12.18;;;;;;;;;;5078867;28;20032;-38
2024/01/20 13:08:11;;;;;;;23.20;13.35;;;;;;;;;;5097112;28;20043;-36
2024/01/20 13:10:36;;;;;;;22.00;12.15;;;;;;;;;;5078940;28;20102;-37
2024/01/20 13:13:01;;;;;;;22.77;12.57;;;;;;;;;;5097046;28;20017;-37
2024/01/20 13:15:27;;;;;;;21.10;12.70;;;;;;;;;;5096987;28;20386;-38
2024/01/20 13:17:52;;;;;;;22.00;13.27;;;;;;;;;;5097481;28;20028;-38
2024/01/20 13:20:17;;;;;;;21.27;12.63;;;;;;;;;;5096871;28;20048;-38
2024/01/20 13:22:43;;;;;;;20.55;13.13;;;;;;;;;;5078551;28;20020;-37
2024/01/20 13:25:08;;;;;;;20.75;13.48;;;;;;;;;;5078623;28;20090;-37
2024/01/20 13:27:33;;;;;;;21.67;13.23;;;;;;;;;;5096733;28;20477;-37
2024/01/20 13:29:59;;;;;;;20.67;12.47;;;;;;;;;;5096998;28;20020;-36
2024/01/20 13:32:24;;;;;;;21.20;12.63;;;;;;;;;;5096905;28;20625;-37
2024/01/20 13:34:49;;;;;;;19.10;11.45;;;;;;;;;;5096656;28;20020;-37
2024/01/20 13:37:14;;;;;;;20.00;10.88;;;;;;;;;;5078343;28;20078;-37
2024/01/20 13:39:39;;;;;;;18.42;10.35;;;;;;;;;;5096541;28;20025;-37
2024/01/20 13:42:05;;;;;;;19.40;10.77;;;;;;;;;;5096927;28;20027;-37
2024/01/20 13:44:30;;;;;;;19.98;10.55;;;;;;;;;;5096737;28;20246;-37
2024/01/20 13:46:55;;;;;;;21.05;11.20;;;;;;;;;;5096638;28;20463;-37
2024/01/20 13:49:20;;;;;;;18.48;10.52;;;;;;;;;;5096482;28;20027;-37
2024/01/20 13:51:46;;;;;;;21.42;10.00;;;;;;;;;;5096275;28;20020;-37
2024/01/20 13:54:11;;;;;;;18.13;9.67;;;;;;;;;;5096157;28;20020;-37
2024/01/20 13:56:36;;;;;;;19.37;9.70;;;;;;;;;;5096180;28;20698;-38
2024/01/20 13:59:02;;;;;;;17.10;8.82;;;;;;;;;;5096704;28;20250;-37
2024/01/20 14:01:27;;;;;;;20.52;9.60;;;;;;;;;;5095966;28;20020;-37
2024/01/20 14:03:53;;;;;;;21.02;9.90;;;;;;;;;;5096249;28;20017;-36
2024/01/20 14:06:18;;;;;;;26.25;10.98;;;;;;;;;;5095797;28;20456;-39
2024/01/20 14:08:44;;;;;;;14.65;8.15;;;;;;;;;;5094858;28;20383;-37